Time;durP1;ratioP1;P1;durP2;ratioP2;P2;SDS_P1;SDS_P2;PMS_P1;PMS_P2;Temp;Humidity;BMP_temperature;BMP_pressure;BME280_temperature;BME280_humidity;BME280_pressure;Samples;Min_cycle;Max_cycle;Signal;HPM_P1;HPM_P2
2022/01/21 00:00:11;;;;;;;;;;;1.30;99.90;;;;;;5050260;28;19921;-49
2022/01/21 00:02:38;;;;;;;;;;;1.40;99.90;;;;;;5064147;28;19924;-48
2022/01/21 00:05:04;;;;;;;;;;;1.50;99.90;;;;;;5072394;28;19920;-48
2022/01/21 00:07:30;;;;;;;;;;;1.50;99.90;;;;;;5049616;28;19916;-47
2022/01/21 00:09:56;;;;;;;;;;;;;;;;;;5062161;28;19965;-48
2022/01/21 00:12:23;;;;;;;;;;;1.80;99.90;;;;;;5043932;28;19924;-47
2022/01/21 00:14:48;;;;;;;;;;;2.00;99.90;;;;;;5071888;28;19932;-50
2022/01/21 00:17:16;;;;;;;;;;;2.20;99.90;;;;;;5064516;28;19920;-49
2022/01/21 00:19:45;;;;;;;;;;;2.30;99.90;;;;;;5049326;28;19982;-48
2022/01/21 00:30:10;;;;;;;;;;;2.20;99.90;;;;;;5069820;28;20377;-48
2022/01/21 00:30:28;;;;;;;;;;;2.40;99.90;;;;;;5082630;28;19954;-49
2022/01/21 00:32:54;;;;;;;;;;;2.50;99.90;;;;;;5047361;28;19973;-48
2022/01/21 00:35:20;;;;;;;;;;;2.50;99.90;;;;;;5063926;28;19996;-48
2022/01/21 00:37:47;;;;;;;;;;;2.40;99.90;;;;;;5034255;28;20038;-47
2022/01/21 00:40:19;;;;;;;;;;;2.20;99.90;;;;;;5072612;28;20319;-49
2022/01/21 00:45:13;;;;;;;;;;;2.20;99.90;;;;;;5082740;28;20003;-48
2022/01/21 00:47:39;;;;;;;;;;;2.10;99.90;;;;;;5066737;28;19917;-49
2022/01/21 00:50:05;;;;;;;;;;;2.10;99.90;;;;;;5084154;28;19936;-49
2022/01/21 00:52:31;;;;;;;;;;;1.90;99.90;;;;;;5045288;28;20378;-49
2022/01/21 00:54:57;;;;;;;;;;;1.90;99.90;;;;;;5066832;28;19920;-48
2022/01/21 00:57:23;;;;;;;;;;;1.70;99.90;;;;;;5067479;28;19924;-49
2022/01/21 00:59:48;;;;;;;;;;;1.70;99.90;;;;;;5036942;28;19923;-49
2022/01/21 01:02:14;;;;;;;;;;;;;;;;;;5033871;28;20313;-49
2022/01/21 01:04:40;;;;;;;;;;;1.60;99.90;;;;;;5065304;28;20007;-48
2022/01/21 01:07:06;;;;;;;;;;;1.60;99.90;;;;;;5051376;28;20023;-48
2022/01/21 01:09:33;;;;;;;;;;;1.70;99.90;;;;;;5067154;28;19971;-48
2022/01/21 01:20:04;;;;;;;;;;;1.90;99.90;;;;;;5064982;28;19920;-49
2022/01/21 01:22:52;;;;;;;;;;;1.80;99.90;;;;;;5082407;28;19916;-48
2022/01/21 01:28:03;;;;;;;;;;;1.80;99.90;;;;;;5061666;28;19920;-48
2022/01/21 01:30:31;;;;;;;;;;;1.80;99.90;;;;;;5045748;28;20017;-49
2022/01/21 01:32:58;;;;;;;;;;;1.70;99.90;;;;;;5066879;28;20020;-49
2022/01/21 01:35:25;;;;;;;;;;;1.70;99.90;;;;;;5046992;28;19965;-49
2022/01/21 01:38:28;;;;;;;;;;;1.60;99.90;;;;;;5050820;28;19916;-48
2022/01/21 01:51:17;;;;;;;;;;;1.30;99.90;;;;;;5083719;28;19920;-49
2022/01/21 01:53:48;;;;;;;;;;;1.40;99.90;;;;;;5054334;28;19965;-50
2022/01/21 01:56:16;;;;;;;;;;;1.40;99.90;;;;;;5069134;28;19916;-50
2022/01/21 01:58:43;;;;;;;;;;;1.50;99.90;;;;;;5069105;28;19915;-49
2022/01/21 02:01:08;;;;;;;;;;;1.60;99.90;;;;;;5088753;28;19946;-50
2022/01/21 02:03:35;;;;;;;;;;;1.80;99.90;;;;;;5085379;28;19920;-50
2022/01/21 02:06:01;;;;;;;;;;;1.70;99.90;;;;;;5050132;28;19923;-49
2022/01/21 02:08:27;;;;;;;;;;;1.60;99.90;;;;;;5087200;28;20160;-49
2022/01/21 02:10:53;;;;;;;;;;;1.60;99.90;;;;;;5087553;28;20380;-50
2022/01/21 02:13:25;;;;;;;;;;;1.50;99.90;;;;;;5095042;28;19955;-49
2022/01/21 02:15:57;;;;;;;;;;;1.50;99.90;;;;;;5085591;28;19920;-50
2022/01/21 02:24:02;;;;;;;;;;;1.20;99.90;;;;;;5069427;28;19927;-51
2022/01/21 02:26:29;;;;;;;;;;;1.10;99.90;;;;;;5069990;28;20069;-50
2022/01/21 02:28:55;;;;;;;;;;;1.10;99.90;;;;;;5069577;28;20456;-49
2022/01/21 02:31:21;;;;;;;;;;;1.00;99.90;;;;;;5087386;28;19916;-53
2022/01/21 02:33:47;;;;;;;;;;;0.90;99.90;;;;;;5071082;28;20286;-50
2022/01/21 02:36:13;;;;;;;;;;;0.90;99.90;;;;;;5069764;28;19923;-49
2022/01/21 02:38:38;;;;;;;;;;;0.90;99.90;;;;;;5068370;28;20316;-51
2022/01/21 02:41:04;;;;;;;;;;;0.90;99.90;;;;;;5044983;28;19921;-52
2022/01/21 02:43:30;;;;;;;;;;;0.90;99.90;;;;;;5066459;28;19916;-49
2022/01/21 02:45:56;;;;;;;;;;;1.00;99.90;;;;;;5070381;28;19970;-49
2022/01/21 02:48:23;;;;;;;;;;;1.10;99.90;;;;;;5048243;28;20782;-50
2022/01/21 02:50:49;;;;;;;;;;;1.10;99.90;;;;;;5048709;28;19928;-50
2022/01/21 02:53:39;;;;;;;;;;;1.20;99.90;;;;;;5047568;28;19924;-50
2022/01/21 02:56:05;;;;;;;;;;;1.20;99.90;;;;;;5066366;28;19925;-50
2022/01/21 02:58:32;;;;;;;;;;;1.30;99.90;;;;;;5056699;28;19916;-49
2022/01/21 03:00:58;;;;;;;;;;;1.40;99.90;;;;;;5047029;28;19970;-51
2022/01/21 03:03:24;;;;;;;;;;;1.40;99.90;;;;;;5042910;28;19917;-51
2022/01/21 03:05:49;;;;;;;;;;;1.50;99.90;;;;;;5052404;28;19974;-50
2022/01/21 03:08:15;;;;;;;;;;;1.50;99.90;;;;;;5034601;28;19916;-49
2022/01/21 03:10:41;;;;;;;;;;;1.50;99.90;;;;;;5061153;28;20251;-51
2022/01/21 03:13:07;;;;;;;;;;;1.50;99.90;;;;;;5068297;28;19920;-50
2022/01/21 03:15:32;;;;;;;;;;;1.60;99.90;;;;;;5065568;28;19924;-50
2022/01/21 03:17:58;;;;;;;;;;;1.60;99.90;;;;;;5055067;28;20355;-53
2022/01/21 03:20:24;;;;;;;;;;;1.60;99.90;;;;;;5053940;28;19916;-51
2022/01/21 03:22:50;;;;;;;;;;;1.60;99.90;;;;;;5058086;28;20393;-50
2022/01/21 03:25:15;;;;;;;;;;;1.70;99.90;;;;;;5074396;28;19924;-51
2022/01/21 03:27:41;;;;;;;;;;;1.70;99.90;;;;;;5053081;28;20480;-52
2022/01/21 03:30:08;;;;;;;;;;;1.70;99.90;;;;;;5070006;28;20369;-53
2022/01/21 03:32:34;;;;;;;;;;;1.70;99.90;;;;;;5054743;28;19994;-50
2022/01/21 03:35:00;;;;;;;;;;;1.70;99.90;;;;;;5052632;28;20378;-50
2022/01/21 03:37:26;;;;;;;;;;;1.60;99.90;;;;;;5058287;28;19920;-49
2022/01/21 03:39:52;;;;;;;;;;;1.50;99.90;;;;;;5060753;28;19925;-50
2022/01/21 03:42:17;;;;;;;;;;;1.50;99.90;;;;;;5068534;28;19956;-50
2022/01/21 03:44:43;;;;;;;;;;;1.40;99.90;;;;;;5067360;28;19920;-50
2022/01/21 03:47:09;;;;;;;;;;;1.40;99.90;;;;;;5081075;28;19986;-52
2022/01/21 03:49:40;;;;;;;;;;;1.30;99.90;;;;;;5072174;28;20441;-50
2022/01/21 03:52:07;;;;;;;;;;;1.30;99.90;;;;;;5072468;28;19916;-50
2022/01/21 03:54:35;;;;;;;;;;;1.30;99.90;;;;;;5071763;28;20382;-51
2022/01/21 03:57:02;;;;;;;;;;;1.20;99.90;;;;;;5071615;28;19971;-50
2022/01/21 03:59:28;;;;;;;;;;;1.20;99.90;;;;;;5073231;28;19927;-51
2022/01/21 04:01:54;;;;;;;;;;;1.20;99.90;;;;;;5057224;28;19924;-50
2022/01/21 04:04:19;;;;;;;;;;;1.20;99.90;;;;;;5068341;28;19925;-49
2022/01/21 04:06:45;;;;;;;;;;;1.60;99.90;;;;;;5074308;28;19916;-50
2022/01/21 04:09:11;;;;;;;;;;;1.80;99.90;;;;;;5072617;28;19928;-49
2022/01/21 04:11:37;;;;;;;;;;;1.80;99.90;;;;;;5073752;28;19967;-49
2022/01/21 04:14:03;;;;;;;;;;;1.80;99.90;;;;;;5068667;28;19963;-51
2022/01/21 04:16:29;;;;;;;;;;;1.70;99.90;;;;;;5075195;28;20408;-53
2022/01/21 04:18:54;;;;;;;;;;;1.50;99.90;;;;;;5085700;28;19932;-50
2022/01/21 04:21:21;;;;;;;;;;;1.40;99.90;;;;;;5067985;28;19956;-50
2022/01/21 04:23:47;;;;;;;;;;;1.30;99.90;;;;;;5051391;28;20009;-51
2022/01/21 04:26:12;;;;;;;;;;;1.20;99.90;;;;;;5070481;28;19920;-53
2022/01/21 04:28:38;;;;;;;;;;;1.20;99.90;;;;;;5070179;28;19927;-53
2022/01/21 04:31:04;;;;;;;;;;;1.10;99.90;;;;;;5069272;28;20354;-50
2022/01/21 04:33:29;;;;;;;;;;;1.10;99.90;;;;;;5068039;28;19920;-50
2022/01/21 04:35:55;;;;;;;;;;;1.10;99.90;;;;;;5073234;28;20294;-52
2022/01/21 04:38:23;;;;;;;;;;;1.00;99.90;;;;;;5051584;28;19928;-50
2022/01/21 04:40:57;;;;;;;;;;;0.90;99.90;;;;;;5072137;28;19920;-50
2022/01/21 04:48:53;;;;;;;;;;;0.90;99.90;;;;;;5076077;28;19924;-52
2022/01/21 04:51:25;;;;;;;;;;;0.90;99.90;;;;;;5087619;28;19930;-50
2022/01/21 04:53:51;;;;;;;;;;;0.80;99.90;;;;;;5070154;28;19967;-50
2022/01/21 04:56:17;;;;;;;;;;;0.90;99.90;;;;;;5054154;28;19992;-49
2022/01/21 04:58:44;;;;;;;;;;;0.90;99.90;;;;;;5089281;28;19990;-51
2022/01/21 05:01:10;;;;;;;;;;;0.90;99.90;;;;;;5089613;28;20518;-50
2022/01/21 05:03:38;;;;;;;;;;;0.90;99.90;;;;;;5071380;28;19924;-51
2022/01/21 05:06:03;;;;;;;;;;;0.90;99.90;;;;;;5087935;28;19926;-52
2022/01/21 05:08:39;;;;;;;;;;;0.90;99.90;;;;;;5088130;28;19984;-50
2022/01/21 05:11:05;;;;;;;;;;;1.00;99.90;;;;;;5072544;28;19923;-49
2022/01/21 05:13:37;;;;;;;;;;;1.00;99.90;;;;;;5089063;28;20317;-50
2022/01/21 05:16:06;;;;;;;;;;;1.00;99.90;;;;;;5075424;28;19924;-50
2022/01/21 05:18:31;;;;;;;;;;;1.00;99.90;;;;;;5055328;28;19924;-49
2022/01/21 05:20:58;;;;;;;;;;;1.00;99.90;;;;;;5089216;28;19920;-48
2022/01/21 05:23:24;;;;;;;;;;;1.00;99.90;;;;;;5088787;28;19958;-50
2022/01/21 05:25:49;;;;;;;;;;;1.10;99.90;;;;;;5069016;28;19916;-50
2022/01/21 05:28:15;;;;;;;;;;;1.10;99.90;;;;;;5070401;28;19973;-49
2022/01/21 05:30:41;;;;;;;;;;;1.10;99.90;;;;;;5056189;28;20407;-49
2022/01/21 05:33:07;;;;;;;;;;;1.20;99.90;;;;;;5064287;28;19927;-49
2022/01/21 05:35:33;;;;;;;;;;;1.20;99.90;;;;;;5051924;28;19920;-50
2022/01/21 05:37:58;;;;;;;;;;;1.20;99.90;;;;;;5068070;28;19920;-50
2022/01/21 05:40:25;;;;;;;;;;;1.20;99.90;;;;;;5062148;28;19930;-51
2022/01/21 05:42:51;;;;;;;;;;;1.20;99.90;;;;;;5047260;28;19955;-50
2022/01/21 05:48:02;;;;;;;;;;;1.30;99.90;;;;;;5070966;28;20010;-52
2022/01/21 05:50:28;;;;;;;;;;;1.30;99.90;;;;;;5081828;28;20019;-50
2022/01/21 05:52:55;;;;;;;;;;;1.40;99.90;;;;;;5080462;28;19927;-50
2022/01/21 05:55:21;;;;;;;;;;;1.40;99.90;;;;;;5051177;28;19974;-48
2022/01/21 05:57:47;;;;;;;;;;;1.50;99.90;;;;;;5067996;28;19959;-52
2022/01/21 06:00:13;;;;;;;;;;;1.50;99.90;;;;;;5085233;28;20355;-50
2022/01/21 06:02:39;;;;;;;;;;;1.50;99.90;;;;;;5067230;28;19920;-50
2022/01/21 06:05:05;;;;;;;;;;;1.50;99.90;;;;;;5066643;28;19950;-51
2022/01/21 06:07:31;;;;;;;;;;;1.50;99.90;;;;;;5044735;28;19920;-51
2022/01/21 06:09:57;;;;;;;;;;;1.50;99.90;;;;;;5051294;28;20835;-48
2022/01/21 06:12:23;;;;;;;;;;;1.50;99.90;;;;;;5067122;28;20515;-50
2022/01/21 06:14:49;;;;;;;;;;;1.50;99.90;;;;;;5050217;28;19928;-49
2022/01/21 06:17:15;;;;;;;;;;;1.50;99.90;;;;;;5067587;28;19927;-50
2022/01/21 06:19:41;;;;;;;;;;;1.50;99.90;;;;;;5064738;28;19917;-50
2022/01/21 06:22:07;;;;;;;;;;;1.50;99.90;;;;;;5050527;28;20680;-49
2022/01/21 06:24:33;;;;;;;;;;;1.50;99.90;;;;;;5064115;28;19920;-51
2022/01/21 06:27:01;;;;;;;;;;;1.50;99.90;;;;;;5063691;28;19970;-53
2022/01/21 06:29:27;;;;;;;;;;;1.50;99.90;;;;;;5051732;28;19973;-49
2022/01/21 06:31:53;;;;;;;;;;;1.50;99.90;;;;;;5052889;28;19959;-51
2022/01/21 06:34:19;;;;;;;;;;;1.60;99.90;;;;;;5035250;28;20348;-50
2022/01/21 06:36:45;;;;;;;;;;;1.60;99.90;;;;;;5084329;28;19927;-49
2022/01/21 06:39:29;;;;;;;;;;;1.70;99.90;;;;;;5047891;28;20346;-49
2022/01/21 06:41:55;;;;;;;;;;;1.70;99.90;;;;;;5062847;28;19920;-50
2022/01/21 06:44:21;;;;;;;;;;;1.70;99.90;;;;;;5048734;28;19996;-51
2022/01/21 06:46:47;;;;;;;;;;;1.70;99.90;;;;;;5066512;28;19924;-50
2022/01/21 06:49:13;;;;;;;;;;;1.80;99.90;;;;;;5063255;28;20123;-49
2022/01/21 06:51:38;;;;;;;;;;;1.80;99.90;;;;;;5049474;28;19923;-51
2022/01/21 06:54:04;;;;;;;;;;;1.80;99.90;;;;;;5067652;28;19929;-52
2022/01/21 06:56:30;;;;;;;;;;;1.80;99.90;;;;;;5062634;28;19917;-50
2022/01/21 06:58:56;;;;;;;;;;;1.80;99.90;;;;;;5067934;28;19939;-50
2022/01/21 07:01:22;;;;;;;;;;;1.70;99.90;;;;;;5044382;28;19920;-54
2022/01/21 07:03:48;;;;;;;;;;;1.70;99.90;;;;;;5061166;28;19928;-50
2022/01/21 07:06:13;;;;;;;;;;;1.70;99.90;;;;;;5068047;28;20411;-51
2022/01/21 07:08:39;;;;;;;;;;;1.70;99.90;;;;;;5045252;28;19916;-50
2022/01/21 07:11:05;;;;;;;;;;;1.70;99.90;;;;;;5017365;28;19929;-51
2022/01/21 07:13:31;;;;;;;;;;;1.70;99.90;;;;;;5058360;28;19924;-49
2022/01/21 07:15:58;;;;;;;;;;;1.70;99.90;;;;;;5051900;28;19966;-50
2022/01/21 07:18:24;;;;;;;;;;;1.70;99.90;;;;;;5029816;28;20561;-49
2022/01/21 07:20:50;;;;;;;;;;;1.70;99.90;;;;;;5066151;28;20009;-50
2022/01/21 07:23:15;;;;;;;;;;;1.60;99.90;;;;;;5064642;28;19924;-51
2022/01/21 07:25:41;;;;;;;;;;;1.60;99.90;;;;;;5080895;28;19916;-51
2022/01/21 07:28:08;;;;;;;;;;;1.60;99.90;;;;;;5060233;28;19927;-50
2022/01/21 07:30:33;;;;;;;;;;;1.60;99.90;;;;;;5066070;28;19921;-50
2022/01/21 07:32:59;;;;;;;;;;;1.60;99.90;;;;;;5045784;28;19931;-50
2022/01/21 07:35:26;;;;;;;;;;;1.50;99.90;;;;;;5046804;28;20495;-52
2022/01/21 07:37:52;;;;;;;;;;;1.50;99.90;;;;;;5032125;28;19966;-51
2022/01/21 07:40:17;;;;;;;;;;;1.80;99.90;;;;;;5037603;28;19982;-48
2022/01/21 07:42:43;;;;;;;;;;;0.70;99.90;;;;;;5068482;28;19927;-50
2022/01/21 07:45:09;;;;;;;;;;;1.40;99.90;;;;;;5082748;28;19920;-49
2022/01/21 07:47:35;;;;;;;;;;;1.50;99.90;;;;;;5066303;28;19973;-51
2022/01/21 07:50:01;;;;;;;;;;;1.40;99.90;;;;;;5077300;28;19925;-52
2022/01/21 07:52:26;;;;;;;;;;;1.50;99.90;;;;;;5066574;28;19920;-49
2022/01/21 07:54:52;;;;;;;;;;;1.50;99.90;;;;;;5066899;28;19973;-50
2022/01/21 07:57:18;;;;;;;;;;;1.50;99.90;;;;;;5049477;28;19967;-50
2022/01/21 07:59:44;;;;;;;;;;;1.50;99.90;;;;;;5062659;28;20358;-50
2022/01/21 08:02:09;;;;;;;;;;;1.60;99.90;;;;;;5070169;28;19920;-50
2022/01/21 08:04:35;;;;;;;;;;;1.60;99.90;;;;;;5070863;28;20007;-49
2022/01/21 08:07:01;;;;;;;;;;;1.60;99.90;;;;;;5071527;28;19920;-50
2022/01/21 08:09:27;;;;;;;;;;;1.60;99.90;;;;;;5066779;28;19974;-49
2022/01/21 08:11:53;;;;;;;;;;;1.60;99.90;;;;;;5051697;28;19935;-49
2022/01/21 08:14:19;;;;;;;;;;;1.70;99.90;;;;;;5051650;28;19951;-50
2022/01/21 08:16:45;;;;;;;;;;;1.70;99.90;;;;;;5072041;28;19920;-51
2022/01/21 08:19:12;;;;;;;;;;;1.80;99.90;;;;;;5065185;28;19916;-50
2022/01/21 08:21:37;;;;;;;;;;;1.80;99.90;;;;;;5068826;28;19920;-50
2022/01/21 08:24:06;;;;;;;;;;;1.80;99.90;;;;;;5083514;28;19962;-50
2022/01/21 08:26:31;;;;;;;;;;;1.90;99.90;;;;;;5068107;28;19987;-49
2022/01/21 08:28:57;;;;;;;;;;;1.90;99.90;;;;;;5062812;28;20004;-50
2022/01/21 08:31:24;;;;;;;;;;;1.90;99.90;;;;;;5069345;28;20421;-49
2022/01/21 08:33:50;;;;;;;;;;;2.00;99.90;;;;;;5073277;28;19924;-50
2022/01/21 08:36:18;;;;;;;;;;;2.00;99.90;;;;;;5051278;28;19920;-51
2022/01/21 08:38:43;;;;;;;;;;;2.10;99.90;;;;;;5071099;28;20507;-50
2022/01/21 08:41:09;;;;;;;;;;;2.10;99.90;;;;;;5066823;28;19920;-51
2022/01/21 08:43:36;;;;;;;;;;;2.20;99.90;;;;;;5068716;28;20375;-51
2022/01/21 08:46:03;;;;;;;;;;;2.20;99.90;;;;;;5069130;28;20007;-49
2022/01/21 08:48:28;;;;;;;;;;;2.30;99.90;;;;;;5068976;28;19936;-49
2022/01/21 08:50:56;;;;;;;;;;;2.40;99.90;;;;;;5067360;28;20019;-49
2022/01/21 08:53:38;;;;;;;;;;;2.50;99.90;;;;;;5072740;28;20012;-53
2022/01/21 08:56:05;;;;;;;;;;;2.60;99.90;;;;;;5056448;28;19942;-49
2022/01/21 08:58:31;;;;;;;;;;;2.70;99.90;;;;;;5063408;28;20015;-50
2022/01/21 09:00:57;;;;;;;;;;;2.70;99.90;;;;;;5068156;28;20431;-50
2022/01/21 09:03:23;;;;;;;;;;;2.70;99.90;;;;;;5068087;28;20016;-49
2022/01/21 09:05:50;;;;;;;;;;;2.70;99.90;;;;;;5070432;28;19916;-49
2022/01/21 09:08:17;;;;;;;;;;;2.80;99.90;;;;;;5069129;28;19916;-51
2022/01/21 09:10:43;;;;;;;;;;;2.80;99.90;;;;;;5071191;28;19920;-53
2022/01/21 09:13:09;;;;;;;;;;;2.90;99.90;;;;;;5065938;28;19935;-49
2022/01/21 09:15:36;;;;;;;;;;;3.00;99.90;;;;;;5052285;28;19920;-52
2022/01/21 09:18:05;;;;;;;;;;;3.10;99.90;;;;;;5063098;28;19916;-49
2022/01/21 09:20:31;;;;;;;;;;;3.20;99.90;;;;;;5066249;28;20028;-47
2022/01/21 09:22:57;;;;;;;;;;;3.20;99.90;;;;;;5068723;28;20011;-48
2022/01/21 09:25:22;;;;;;;;;;;3.30;99.90;;;;;;5070062;28;20007;-48
2022/01/21 09:27:48;;;;;;;;;;;3.30;99.90;;;;;;5050846;28;19920;-45
2022/01/21 09:30:14;;;;;;;;;;;3.30;99.90;;;;;;5061445;28;20007;-47
2022/01/21 09:32:40;;;;;;;;;;;3.40;99.90;;;;;;5068411;28;19916;-46
2022/01/21 09:35:06;;;;;;;;;;;3.40;99.90;;;;;;5069959;28;19931;-48
2022/01/21 09:37:32;;;;;;;;;;;3.50;99.90;;;;;;5064825;28;19935;-46
2022/01/21 09:39:58;;;;;;;;;;;3.50;99.90;;;;;;5075981;28;19920;-49
2022/01/21 09:42:24;;;;;;;;;;;3.60;99.90;;;;;;5066091;28;20326;-53
2022/01/21 09:44:51;;;;;;;;;;;3.60;99.90;;;;;;5049403;28;19916;-48
2022/01/21 09:47:18;;;;;;;;;;;3.70;99.90;;;;;;5027185;28;19920;-51
2022/01/21 09:49:45;;;;;;;;;;;3.70;99.90;;;;;;5051516;28;19943;-49
2022/01/21 09:52:12;;;;;;;;;;;3.80;99.90;;;;;;5064836;28;19916;-48
2022/01/21 09:54:39;;;;;;;;;;;3.90;99.90;;;;;;5064745;28;19927;-51
2022/01/21 09:57:06;;;;;;;;;;;3.90;99.90;;;;;;5067099;28;19920;-50
2022/01/21 09:59:33;;;;;;;;;;;4.00;99.90;;;;;;5066140;28;19916;-47
2022/01/21 10:02:04;;;;;;;;;;;4.00;99.90;;;;;;5049252;28;19916;-50
2022/01/21 10:04:31;;;;;;;;;;;4.00;99.90;;;;;;5067391;28;20373;-48
2022/01/21 10:06:58;;;;;;;;;;;4.10;99.90;;;;;;5067954;28;20404;-52
2022/01/21 10:09:24;;;;;;;;;;;4.10;99.90;;;;;;5066217;28;19917;-48
2022/01/21 10:11:51;;;;;;;;;;;4.20;99.90;;;;;;5067102;28;19923;-50
2022/01/21 10:14:19;;;;;;;;;;;4.20;99.90;;;;;;5068338;28;20329;-47
2022/01/21 10:16:46;;;;;;;;;;;4.30;99.90;;;;;;5052061;28;19920;-48
2022/01/21 10:19:12;;;;;;;;;;;4.30;99.90;;;;;;5067045;28;19999;-49
2022/01/21 10:21:40;;;;;;;;;;;4.30;99.90;;;;;;5031894;28;19963;-49
2022/01/21 10:24:05;;;;;;;;;;;4.40;99.90;;;;;;5072562;28;19969;-50
2022/01/21 10:26:31;;;;;;;;;;;4.40;99.90;;;;;;5048012;28;19924;-48
2022/01/21 10:31:50;;;;;;;;;;;4.60;99.90;;;;;;5063336;28;19925;-49
2022/01/21 10:34:22;;;;;;;;;;;4.70;99.90;;;;;;5079101;28;20239;-51
2022/01/21 10:36:54;;;;;;;;;;;4.80;99.90;;;;;;5049810;28;19920;-51
2022/01/21 10:39:29;;;;;;;;;;;5.00;99.90;;;;;;5071611;28;19970;-49
2022/01/21 10:41:57;;;;;;;;;;;5.00;99.90;;;;;;5062831;28;20015;-50
2022/01/21 10:44:25;;;;;;;;;;;5.10;99.90;;;;;;5066249;28;19921;-48
2022/01/21 10:47:02;;;;;;;;;;;5.20;99.90;;;;;;5080415;28;20040;-52
2022/01/21 10:49:29;;;;;;;;;;;5.30;99.90;;;;;;5067428;28;20147;-52
2022/01/21 10:51:55;;;;;;;;;;;5.50;99.90;;;;;;5036573;28;19924;-51
2022/01/21 10:54:22;;;;;;;;;;;5.70;99.90;;;;;;5065690;28;19923;-50
2022/01/21 10:57:02;;;;;;;;;;;5.90;99.90;;;;;;5062193;28;20008;-50
2022/01/21 10:59:46;;;;;;;;;;;6.00;99.90;;;;;;5051172;28;19924;-50
2022/01/21 11:02:13;;;;;;;;;;;6.00;99.90;;;;;;5067891;28;19920;-48
2022/01/21 11:04:42;;;;;;;;;;;6.00;99.90;;;;;;5066767;28;19920;-49
2022/01/21 11:07:08;;;;;;;;;;;6.00;99.90;;;;;;5052190;28;19963;-49
2022/01/21 11:09:36;;;;;;;;;;;5.20;99.90;;;;;;5065997;28;19934;-49
2022/01/21 11:12:11;;;;;;;;;;;6.00;99.90;;;;;;5066953;28;19916;-49
2022/01/21 11:14:37;;;;;;;;;;;6.00;99.90;;;;;;5068435;28;20339;-52
2022/01/21 11:17:15;;;;;;;;;;;6.00;99.90;;;;;;5048561;28;19917;-48
2022/01/21 11:20:00;;;;;;;;;;;6.10;99.90;;;;;;5065773;28;19967;-48
2022/01/21 11:22:28;;;;;;;;;;;6.10;99.90;;;;;;5066956;28;19920;-49
2022/01/21 11:24:55;;;;;;;;;;;6.20;99.90;;;;;;5068657;28;19924;-51
2022/01/21 11:27:21;;;;;;;;;;;6.20;99.90;;;;;;5062204;28;19931;-51
2022/01/21 11:29:47;;;;;;;;;;;6.30;99.90;;;;;;5047360;28;19920;-49
2022/01/21 11:32:13;;;;;;;;;;;6.40;99.90;;;;;;5066721;28;19921;-48
2022/01/21 11:34:41;;;;;;;;;;;6.50;99.90;;;;;;5067676;28;19917;-49
2022/01/21 11:37:07;;;;;;;;;;;6.50;99.90;;;;;;5065474;28;20010;-49
2022/01/21 11:39:33;;;;;;;;;;;6.50;99.90;;;;;;5051730;28;21245;-51
2022/01/21 11:42:00;;;;;;;;;;;6.60;99.90;;;;;;5052114;28;19969;-49
2022/01/21 11:44:28;;;;;;;;;;;6.60;99.90;;;;;;5052641;28;19950;-49
2022/01/21 11:47:14;;;;;;;;;;;6.50;99.90;;;;;;5071396;28;19999;-51
2022/01/21 11:49:41;;;;;;;;;;;6.50;99.90;;;;;;5050715;28;20459;-49
2022/01/21 11:52:14;;;;;;;;;;;6.50;99.90;;;;;;5070409;28;19916;-49
2022/01/21 11:54:40;;;;;;;;;;;6.50;99.90;;;;;;5054758;28;20386;-51
2022/01/21 11:57:06;;;;;;;;;;;6.50;99.90;;;;;;5052853;28;19927;-46
2022/01/21 11:59:39;;;;;;;;;;;6.50;99.90;;;;;;5068964;28;20406;-48
2022/01/21 12:02:18;;;;;;;;;;;6.50;99.90;;;;;;5054123;28;19920;-51
2022/01/21 12:04:46;;;;;;;;;;;6.50;99.90;;;;;;5049002;28;20349;-50
2022/01/21 12:07:30;;;;;;;;;;;6.50;99.90;;;;;;5069911;28;19916;-49
2022/01/21 12:09:56;;;;;;;;;;;6.60;99.90;;;;;;5055686;28;19974;-50
2022/01/21 12:12:24;;;;;;;;;;;6.60;99.90;;;;;;5051843;28;20400;-48
2022/01/21 12:15:02;;;;;;;;;;;6.60;99.90;;;;;;5070816;28;19954;-49
2022/01/21 12:17:44;;;;;;;;;;;6.70;99.90;;;;;;5064833;28;19985;-50
2022/01/21 12:20:10;;;;;;;;;;;6.70;99.90;;;;;;5038077;28;19962;-48
2022/01/21 12:22:36;;;;;;;;;;;6.70;99.90;;;;;;5069804;28;20359;-48
2022/01/21 12:25:09;;;;;;;;;;;6.70;99.90;;;;;;5065395;28;19923;-49
2022/01/21 12:27:35;;;;;;;;;;;6.70;99.90;;;;;;5051478;28;19960;-48
2022/01/21 12:30:19;;;;;;;;;;;6.70;99.90;;;;;;5070582;28;20007;-48
2022/01/21 12:33:00;;;;;;;;;;;6.70;99.90;;;;;;5054177;28;20019;-46
2022/01/21 12:35:27;;;;;;;;;;;6.60;99.90;;;;;;5066550;28;19985;-49
2022/01/21 12:40:53;;;;;;;;;;;6.60;99.90;;;;;;5058256;28;19955;-51
2022/01/21 12:43:39;;;;;;;;;;;6.60;99.90;;;;;;5067125;28;19917;-47
2022/01/21 12:46:06;;;;;;;;;;;6.60;99.90;;;;;;5054764;28;19924;-47
2022/01/21 12:48:35;;;;;;;;;;;6.60;99.90;;;;;;5073596;28;19922;-47
2022/01/21 12:51:13;;;;;;;;;;;6.60;99.90;;;;;;5071903;28;19931;-48
2022/01/21 12:55:54;;;;;;;;;;;6.60;99.90;;;;;;5095314;27;20507;-48
2022/01/21 12:56:25;;;;;;;;;;;6.50;99.90;;;;;;5091192;27;19995;-48
2022/01/21 12:58:51;;;;;;;;;;;6.50;99.90;;;;;;5060695;28;19924;-47
2022/01/21 13:01:17;;;;;;;;;;;6.50;99.90;;;;;;5069755;28;20110;-50
2022/01/21 13:03:46;;;;;;;;;;;6.50;99.90;;;;;;5082257;28;19999;-47
2022/01/21 13:06:24;;;;;;;;;;;6.50;99.90;;;;;;5064771;28;19920;-52
2022/01/21 13:08:59;;;;;;;;;;;6.50;99.90;;;;;;5082449;28;19943;-51
2022/01/21 13:11:25;;;;;;;;;;;6.50;99.90;;;;;;5103188;28;20338;-49
2022/01/21 13:14:23;;;;;;;;;;;6.50;99.90;;;;;;5066367;28;20015;-48
2022/01/21 13:16:56;;;;;;;;;;;6.50;99.90;;;;;;5067474;28;19963;-49
2022/01/21 13:19:22;;;;;;;;;;;6.50;99.90;;;;;;5063675;28;20342;-48
2022/01/21 13:21:48;;;;;;;;;;;6.60;99.90;;;;;;5101378;27;19925;-48
2022/01/21 13:24:31;;;;;;;;;;;6.50;99.90;;;;;;5068486;28;19916;-47
2022/01/21 13:26:57;;;;;;;;;;;6.60;99.90;;;;;;5073703;28;19916;-49
2022/01/21 13:29:34;;;;;;;;;;;6.60;99.90;;;;;;5075813;28;19924;-49
2022/01/21 13:32:01;;;;;;;;;;;6.60;99.90;;;;;;5075408;28;20073;-49
2022/01/21 13:34:29;;;;;;;;;;;6.50;99.90;;;;;;5077916;28;19916;-48
2022/01/21 13:36:56;;;;;;;;;;;6.50;99.90;;;;;;5069332;28;19924;-50
2022/01/21 13:39:28;;;;;;;;;;;6.50;99.90;;;;;;5103259;27;20042;-50
2022/01/21 13:42:10;;;;;;;;;;;6.50;99.90;;;;;;5066753;28;19927;-51
2022/01/21 13:44:41;;;;;;;;;;;6.50;99.90;;;;;;5064260;28;19920;-50
2022/01/21 13:47:21;;;;;;;;;;;6.50;99.90;;;;;;5069113;28;19978;-48
2022/01/21 13:49:47;;;;;;;;;;;6.50;99.90;;;;;;5048250;28;19927;-49
2022/01/21 13:52:13;;;;;;;;;;;6.50;99.90;;;;;;5048407;28;20385;-50
2022/01/21 13:54:43;;;;;;;;;;;6.40;99.90;;;;;;5048490;28;19966;-49
2022/01/21 13:57:09;;;;;;;;;;;6.50;99.90;;;;;;5049262;28;20000;-50
2022/01/21 13:59:45;;;;;;;;;;;6.40;99.90;;;;;;5070326;28;20471;-47
2022/01/21 14:02:14;;;;;;;;;;;6.50;99.90;;;;;;5065314;28;19920;-49
2022/01/21 14:04:53;;;;;;;;;;;6.50;99.90;;;;;;5065009;28;19917;-49
2022/01/21 14:07:23;;;;;;;;;;;6.50;99.90;;;;;;5066758;28;19969;-51
2022/01/21 14:09:49;;;;;;;;;;;6.50;99.90;;;;;;5046889;28;19920;-48
2022/01/21 14:12:15;;;;;;;;;;;6.50;99.90;;;;;;5067431;28;19920;-49
2022/01/21 14:14:41;;;;;;;;;;;6.50;99.90;;;;;;5065974;28;19999;-49
2022/01/21 14:17:08;;;;;;;;;;;6.50;99.90;;;;;;5079565;28;19920;-48
2022/01/21 14:19:37;;;;;;;;;;;6.60;99.90;;;;;;5047613;28;20043;-48
2022/01/21 14:22:04;;;;;;;;;;;6.60;99.90;;;;;;5065560;28;20415;-50
2022/01/21 14:24:30;;;;;;;;;;;6.60;99.90;;;;;;5033445;28;20141;-47
2022/01/21 14:27:01;;;;;;;;;;;6.60;99.90;;;;;;5047157;28;19977;-48
2022/01/21 14:29:35;;;;;;;;;;;6.60;99.90;;;;;;5049146;28;19963;-48
2022/01/21 14:32:16;;;;;;;;;;;6.60;99.90;;;;;;5078967;28;19916;-50
2022/01/21 14:34:43;;;;;;;;;;;6.60;99.90;;;;;;5067186;28;19917;-51
2022/01/21 14:37:13;;;;;;;;;;;6.60;99.90;;;;;;5048222;28;19924;-50
2022/01/21 14:39:40;;;;;;;;;;;6.60;99.90;;;;;;5065621;28;19924;-49
2022/01/21 14:42:07;;;;;;;;;;;6.50;99.90;;;;;;5045881;28;19973;-50
2022/01/21 14:44:33;;;;;;;;;;;6.60;99.90;;;;;;5052192;28;19916;-49
2022/01/21 14:47:08;;;;;;;;;;;6.50;99.90;;;;;;5044378;28;20362;-47
2022/01/21 14:49:34;;;;;;;;;;;6.50;99.90;;;;;;5064943;28;19920;-48
2022/01/21 14:52:33;;;;;;;;;;;6.50;99.90;;;;;;5066573;28;19956;-50
2022/01/21 14:54:45;;;;;;;;;;;6.50;99.90;;;;;;5066042;28;19920;-48
2022/01/21 14:57:11;;;;;;;;;;;6.50;99.90;;;;;;5049694;28;19931;-49
2022/01/21 14:59:50;;;;;;;;;;;6.50;99.90;;;;;;5045437;28;20255;-49
2022/01/21 15:02:15;;;;;;;;;;;6.50;99.90;;;;;;5059386;28;20621;-49
2022/01/21 15:04:52;;;;;;;;;;;6.50;99.90;;;;;;5065319;28;19916;-50
2022/01/21 15:07:23;;;;;;;;;;;6.50;99.90;;;;;;5063467;28;19956;-48
2022/01/21 15:09:50;;;;;;;;;;;6.40;99.90;;;;;;5064107;28;19920;-48
2022/01/21 15:15:43;;;;;;;;;;;6.40;99.90;;;;;;5060113;28;19916;-50
2022/01/21 15:18:12;;;;;;;;;;;6.40;99.90;;;;;;5047247;28;20374;-50
2022/01/21 15:20:38;;;;;;;;;;;6.30;99.90;;;;;;5068677;28;19916;-48
2022/01/21 15:23:04;;;;;;;;;;;6.40;99.90;;;;;;5048969;28;19928;-48
2022/01/21 15:25:31;;;;;;;;;;;6.30;99.90;;;;;;5047891;28;19979;-49
2022/01/21 15:27:57;;;;;;;;;;;6.30;99.90;;;;;;5065747;28;20278;-50